sensor_id;sensor_type;location;lat;lon;timestamp;P1;durP1;ratioP1;P2;durP2;ratioP2
39848;SDS011;25518;47.878;15.914;2022-08-19T00:02:13;6.03;;;2.90;;
39848;SDS011;25518;47.878;15.914;2022-08-19T00:04:39;7.38;;;2.03;;
39848;SDS011;25518;47.878;15.914;2022-08-19T00:07:06;8.13;;;2.15;;
39848;SDS011;25518;47.878;15.914;2022-08-19T00:09:32;6.90;;;2.63;;
39848;SDS011;25518;47.878;15.914;2022-08-19T00:11:59;5.78;;;1.98;;
39848;SDS011;25518;47.878;15.914;2022-08-19T00:14:26;8.57;;;3.30;;
39848;SDS011;25518;47.878;15.914;2022-08-19T00:16:54;7.05;;;2.50;;
39848;SDS011;25518;47.878;15.914;2022-08-19T00:19:21;6.32;;;2.47;;
39848;SDS011;25518;47.878;15.914;2022-08-19T00:21:47;10.32;;;2.67;;
39848;SDS011;25518;47.878;15.914;2022-08-19T00:24:14;7.30;;;2.40;;
39848;SDS011;25518;47.878;15.914;2022-08-19T00:26:41;4.32;;;2.13;;
39848;SDS011;25518;47.878;15.914;2022-08-19T00:29:09;8.40;;;2.00;;
39848;SDS011;25518;47.878;15.914;2022-08-19T00:31:36;9.63;;;2.30;;
39848;SDS011;25518;47.878;15.914;2022-08-19T00:34:02;7.93;;;2.77;;
39848;SDS011;25518;47.878;15.914;2022-08-19T00:36:29;9.00;;;2.70;;
39848;SDS011;25518;47.878;15.914;2022-08-19T00:38:57;6.78;;;2.38;;
39848;SDS011;25518;47.878;15.914;2022-08-19T00:41:23;6.60;;;2.42;;
39848;SDS011;25518;47.878;15.914;2022-08-19T00:43:58;8.75;;;2.88;;
39848;SDS011;25518;47.878;15.914;2022-08-19T00:46:24;8.98;;;2.72;;
39848;SDS011;25518;47.878;15.914;2022-08-19T00:48:50;7.45;;;2.65;;
39848;SDS011;25518;47.878;15.914;2022-08-19T00:51:17;11.52;;;2.60;;
39848;SDS011;25518;47.878;15.914;2022-08-19T00:53:43;6.60;;;2.45;;
39848;SDS011;25518;47.878;15.914;2022-08-19T00:56:09;6.80;;;2.50;;
39848;SDS011;25518;47.878;15.914;2022-08-19T00:58:37;6.67;;;2.43;;
39848;SDS011;25518;47.878;15.914;2022-08-19T01:01:05;9.60;;;3.45;;
39848;SDS011;25518;47.878;15.914;2022-08-19T01:03:32;6.72;;;2.65;;
39848;SDS011;25518;47.878;15.914;2022-08-19T01:05:59;9.15;;;2.35;;
39848;SDS011;25518;47.878;15.914;2022-08-19T01:08:25;9.98;;;3.10;;
39848;SDS011;25518;47.878;15.914;2022-08-19T01:10:54;8.45;;;3.00;;
39848;SDS011;25518;47.878;15.914;2022-08-19T01:13:24;9.00;;;3.35;;
39848;SDS011;25518;47.878;15.914;2022-08-19T01:15:53;8.82;;;3.40;;
39848;SDS011;25518;47.878;15.914;2022-08-19T01:18:20;6.30;;;2.70;;
39848;SDS011;25518;47.878;15.914;2022-08-19T01:20:46;10.77;;;2.50;;
39848;SDS011;25518;47.878;15.914;2022-08-19T01:23:13;7.70;;;2.70;;
39848;SDS011;25518;47.878;15.914;2022-08-19T01:25:42;6.85;;;2.30;;
39848;SDS011;25518;47.878;15.914;2022-08-19T01:28:14;7.57;;;2.20;;
39848;SDS011;25518;47.878;15.914;2022-08-19T01:30:41;6.90;;;2.47;;
39848;SDS011;25518;47.878;15.914;2022-08-19T01:33:08;9.00;;;2.60;;
39848;SDS011;25518;47.878;15.914;2022-08-19T01:35:35;8.75;;;3.30;;
39848;SDS011;25518;47.878;15.914;2022-08-19T01:38:03;5.10;;;2.50;;
39848;SDS011;25518;47.878;15.914;2022-08-19T01:40:33;7.07;;;2.40;;
39848;SDS011;25518;47.878;15.914;2022-08-19T01:43:00;7.55;;;3.13;;
39848;SDS011;25518;47.878;15.914;2022-08-19T01:45:28;8.05;;;2.53;;
39848;SDS011;25518;47.878;15.914;2022-08-19T01:47:56;8.33;;;2.33;;
39848;SDS011;25518;47.878;15.914;2022-08-19T01:50:23;7.03;;;2.23;;
39848;SDS011;25518;47.878;15.914;2022-08-19T01:52:49;7.10;;;2.65;;
39848;SDS011;25518;47.878;15.914;2022-08-19T01:55:17;7.95;;;2.90;;
39848;SDS011;25518;47.878;15.914;2022-08-19T01:57:46;7.97;;;2.60;;
39848;SDS011;25518;47.878;15.914;2022-08-19T02:00:15;7.07;;;2.10;;
39848;SDS011;25518;47.878;15.914;2022-08-19T02:02:42;6.70;;;2.70;;
39848;SDS011;25518;47.878;15.914;2022-08-19T02:05:09;6.55;;;2.00;;
39848;SDS011;25518;47.878;15.914;2022-08-19T02:07:35;7.50;;;2.60;;
39848;SDS011;25518;47.878;15.914;2022-08-19T02:10:03;9.30;;;2.60;;
39848;SDS011;25518;47.878;15.914;2022-08-19T02:12:29;8.15;;;2.80;;
39848;SDS011;25518;47.878;15.914;2022-08-19T02:14:55;8.93;;;3.08;;
39848;SDS011;25518;47.878;15.914;2022-08-19T02:17:22;6.55;;;2.40;;
39848;SDS011;25518;47.878;15.914;2022-08-19T02:19:48;7.68;;;2.90;;
39848;SDS011;25518;47.878;15.914;2022-08-19T02:22:14;9.45;;;2.70;;
39848;SDS011;25518;47.878;15.914;2022-08-19T02:24:40;7.47;;;2.42;;
39848;SDS011;25518;47.878;15.914;2022-08-19T02:27:07;9.40;;;2.78;;
39848;SDS011;25518;47.878;15.914;2022-08-19T02:29:33;9.63;;;3.30;;
39848;SDS011;25518;47.878;15.914;2022-08-19T02:32:00;7.28;;;2.38;;
39848;SDS011;25518;47.878;15.914;2022-08-19T02:34:26;5.60;;;2.53;;
39848;SDS011;25518;47.878;15.914;2022-08-19T02:36:52;6.25;;;2.38;;
39848;SDS011;25518;47.878;15.914;2022-08-19T02:39:19;8.20;;;2.65;;
39848;SDS011;25518;47.878;15.914;2022-08-19T02:41:46;7.38;;;2.85;;
39848;SDS011;25518;47.878;15.914;2022-08-19T02:44:14;7.10;;;2.33;;
39848;SDS011;25518;47.878;15.914;2022-08-19T02:46:40;6.53;;;2.45;;
39848;SDS011;25518;47.878;15.914;2022-08-19T02:49:07;5.70;;;2.67;;
39848;SDS011;25518;47.878;15.914;2022-08-19T02:54:00;8.05;;;2.30;;
39848;SDS011;25518;47.878;15.914;2022-08-19T02:56:26;11.15;;;2.47;;
39848;SDS011;25518;47.878;15.914;2022-08-19T02:58:53;6.05;;;2.35;;
39848;SDS011;25518;47.878;15.914;2022-08-19T03:15:56;8.43;;;3.00;;
39848;SDS011;25518;47.878;15.914;2022-08-19T03:18:22;7.47;;;2.85;;
39848;SDS011;25518;47.878;15.914;2022-08-19T03:20:50;6.75;;;2.60;;
39848;SDS011;25518;47.878;15.914;2022-08-19T03:23:19;7.68;;;2.95;;
39848;SDS011;25518;47.878;15.914;2022-08-19T03:25:47;6.07;;;2.63;;
39848;SDS011;25518;47.878;15.914;2022-08-19T03:28:15;9.93;;;2.95;;
39848;SDS011;25518;47.878;15.914;2022-08-19T03:30:42;5.77;;;2.10;;
39848;SDS011;25518;47.878;15.914;2022-08-19T03:33:09;10.70;;;3.13;;
39848;SDS011;25518;47.878;15.914;2022-08-19T03:35:37;7.73;;;3.17;;
39848;SDS011;25518;47.878;15.914;2022-08-19T03:38:04;7.22;;;2.47;;
39848;SDS011;25518;47.878;15.914;2022-08-19T03:40:31;8.35;;;3.45;;
39848;SDS011;25518;47.878;15.914;2022-08-19T03:42:57;8.20;;;3.00;;
39848;SDS011;25518;47.878;15.914;2022-08-19T03:45:23;11.10;;;2.92;;
39848;SDS011;25518;47.878;15.914;2022-08-19T03:47:50;6.32;;;2.55;;
39848;SDS011;25518;47.878;15.914;2022-08-19T03:50:17;7.85;;;2.50;;
39848;SDS011;25518;47.878;15.914;2022-08-19T03:52:48;8.35;;;2.63;;
39848;SDS011;25518;47.878;15.914;2022-08-19T03:55:15;8.82;;;2.40;;
39848;SDS011;25518;47.878;15.914;2022-08-19T03:57:41;7.57;;;2.37;;
39848;SDS011;25518;47.878;15.914;2022-08-19T04:00:08;5.65;;;2.25;;
39848;SDS011;25518;47.878;15.914;2022-08-19T04:02:35;6.80;;;2.50;;
39848;SDS011;25518;47.878;15.914;2022-08-19T04:05:01;6.60;;;3.03;;
39848;SDS011;25518;47.878;15.914;2022-08-19T04:07:27;8.00;;;2.80;;
39848;SDS011;25518;47.878;15.914;2022-08-19T04:09:53;7.63;;;2.45;;
39848;SDS011;25518;47.878;15.914;2022-08-19T04:12:20;10.63;;;3.13;;
39848;SDS011;25518;47.878;15.914;2022-08-19T04:14:46;7.78;;;2.70;;
39848;SDS011;25518;47.878;15.914;2022-08-19T04:17:13;8.77;;;2.35;;
39848;SDS011;25518;47.878;15.914;2022-08-19T04:19:39;9.20;;;3.00;;
39848;SDS011;25518;47.878;15.914;2022-08-19T04:22:08;8.00;;;3.65;;
39848;SDS011;25518;47.878;15.914;2022-08-19T04:24:36;9.90;;;2.50;;
39848;SDS011;25518;47.878;15.914;2022-08-19T04:27:03;7.55;;;2.33;;
39848;SDS011;25518;47.878;15.914;2022-08-19T04:29:31;6.65;;;2.42;;
39848;SDS011;25518;47.878;15.914;2022-08-19T04:31:58;8.80;;;2.60;;
39848;SDS011;25518;47.878;15.914;2022-08-19T04:34:25;8.60;;;2.90;;
39848;SDS011;25518;47.878;15.914;2022-08-19T04:36:52;9.45;;;3.05;;
39848;SDS011;25518;47.878;15.914;2022-08-19T04:39:20;7.28;;;2.80;;
39848;SDS011;25518;47.878;15.914;2022-08-19T04:41:47;6.60;;;2.50;;
39848;SDS011;25518;47.878;15.914;2022-08-19T04:44:34;7.00;;;2.85;;
39848;SDS011;25518;47.878;15.914;2022-08-19T04:47:00;8.80;;;3.13;;
39848;SDS011;25518;47.878;15.914;2022-08-19T04:49:28;7.03;;;2.97;;
39848;SDS011;25518;47.878;15.914;2022-08-19T04:51:55;6.40;;;2.42;;
39848;SDS011;25518;47.878;15.914;2022-08-19T04:54:22;5.35;;;2.45;;
39848;SDS011;25518;47.878;15.914;2022-08-19T04:56:50;7.75;;;3.20;;
39848;SDS011;25518;47.878;15.914;2022-08-19T04:59:17;5.05;;;2.78;;
39848;SDS011;25518;47.878;15.914;2022-08-19T05:01:45;7.60;;;3.17;;
39848;SDS011;25518;47.878;15.914;2022-08-19T05:04:14;5.60;;;2.97;;
39848;SDS011;25518;47.878;15.914;2022-08-19T05:06:42;5.93;;;2.58;;
39848;SDS011;25518;47.878;15.914;2022-08-19T05:09:08;8.40;;;3.00;;
39848;SDS011;25518;47.878;15.914;2022-08-19T05:11:35;6.00;;;2.92;;
39848;SDS011;25518;47.878;15.914;2022-08-19T05:14:05;6.65;;;2.42;;
39848;SDS011;25518;47.878;15.914;2022-08-19T05:16:31;8.27;;;2.78;;
39848;SDS011;25518;47.878;15.914;2022-08-19T05:18:57;6.22;;;3.10;;
39848;SDS011;25518;47.878;15.914;2022-08-19T05:21:43;7.10;;;2.95;;
39848;SDS011;25518;47.878;15.914;2022-08-19T05:24:30;7.00;;;2.40;;
39848;SDS011;25518;47.878;15.914;2022-08-19T05:26:59;9.27;;;2.90;;
39848;SDS011;25518;47.878;15.914;2022-08-19T05:29:28;6.90;;;2.83;;
39848;SDS011;25518;47.878;15.914;2022-08-19T05:31:57;9.73;;;3.42;;
39848;SDS011;25518;47.878;15.914;2022-08-19T05:34:24;7.45;;;2.63;;
39848;SDS011;25518;47.878;15.914;2022-08-19T05:36:52;8.05;;;2.80;;
39848;SDS011;25518;47.878;15.914;2022-08-19T05:39:21;9.57;;;3.58;;
39848;SDS011;25518;47.878;15.914;2022-08-19T05:41:49;6.45;;;3.08;;
39848;SDS011;25518;47.878;15.914;2022-08-19T05:44:16;10.25;;;3.67;;
39848;SDS011;25518;47.878;15.914;2022-08-19T05:46:43;8.73;;;2.40;;
39848;SDS011;25518;47.878;15.914;2022-08-19T05:49:12;10.35;;;3.38;;
39848;SDS011;25518;47.878;15.914;2022-08-19T05:51:39;10.27;;;2.50;;
39848;SDS011;25518;47.878;15.914;2022-08-19T05:54:05;8.38;;;2.78;;
39848;SDS011;25518;47.878;15.914;2022-08-19T05:56:33;6.70;;;2.70;;
39848;SDS011;25518;47.878;15.914;2022-08-19T05:59:03;7.57;;;2.65;;
39848;SDS011;25518;47.878;15.914;2022-08-19T06:01:33;6.90;;;2.83;;
39848;SDS011;25518;47.878;15.914;2022-08-19T06:04:00;8.30;;;3.00;;
39848;SDS011;25518;47.878;15.914;2022-08-19T06:06:26;10.02;;;3.40;;
39848;SDS011;25518;47.878;15.914;2022-08-19T06:08:52;8.02;;;3.28;;
39848;SDS011;25518;47.878;15.914;2022-08-19T06:11:21;6.47;;;3.20;;
39848;SDS011;25518;47.878;15.914;2022-08-19T06:13:49;10.50;;;3.33;;
39848;SDS011;25518;47.878;15.914;2022-08-19T06:16:19;10.05;;;3.00;;
39848;SDS011;25518;47.878;15.914;2022-08-19T06:18:49;7.20;;;3.13;;
39848;SDS011;25518;47.878;15.914;2022-08-19T06:21:17;6.78;;;2.67;;
39848;SDS011;25518;47.878;15.914;2022-08-19T06:23:44;7.78;;;3.00;;
39848;SDS011;25518;47.878;15.914;2022-08-19T06:26:12;8.95;;;2.95;;
39848;SDS011;25518;47.878;15.914;2022-08-19T06:28:39;8.40;;;3.35;;
39848;SDS011;25518;47.878;15.914;2022-08-19T06:31:09;8.10;;;2.60;;
39848;SDS011;25518;47.878;15.914;2022-08-19T06:33:35;11.48;;;3.53;;
39848;SDS011;25518;47.878;15.914;2022-08-19T06:36:02;10.00;;;3.05;;
39848;SDS011;25518;47.878;15.914;2022-08-19T06:38:29;10.40;;;3.40;;
39848;SDS011;25518;47.878;15.914;2022-08-19T06:41:03;5.88;;;2.90;;
39848;SDS011;25518;47.878;15.914;2022-08-19T06:43:30;9.17;;;2.87;;
39848;SDS011;25518;47.878;15.914;2022-08-19T06:45:56;9.45;;;3.33;;
39848;SDS011;25518;47.878;15.914;2022-08-19T06:48:24;10.57;;;3.22;;
39848;SDS011;25518;47.878;15.914;2022-08-19T06:50:50;8.30;;;3.20;;
39848;SDS011;25518;47.878;15.914;2022-08-19T06:53:16;8.05;;;3.15;;
39848;SDS011;25518;47.878;15.914;2022-08-19T06:55:44;8.98;;;3.30;;
39848;SDS011;25518;47.878;15.914;2022-08-19T06:58:11;10.20;;;3.23;;
39848;SDS011;25518;47.878;15.914;2022-08-19T07:00:37;8.38;;;3.45;;
39848;SDS011;25518;47.878;15.914;2022-08-19T07:03:03;10.43;;;3.83;;
39848;SDS011;25518;47.878;15.914;2022-08-19T07:05:29;7.53;;;3.08;;
39848;SDS011;25518;47.878;15.914;2022-08-19T07:07:56;8.43;;;3.08;;
39848;SDS011;25518;47.878;15.914;2022-08-19T07:10:22;6.80;;;3.22;;
39848;SDS011;25518;47.878;15.914;2022-08-19T07:12:48;8.15;;;3.40;;
39848;SDS011;25518;47.878;15.914;2022-08-19T07:15:15;7.93;;;3.33;;
39848;SDS011;25518;47.878;15.914;2022-08-19T07:17:42;8.13;;;3.33;;
39848;SDS011;25518;47.878;15.914;2022-08-19T07:20:09;5.13;;;2.65;;
39848;SDS011;25518;47.878;15.914;2022-08-19T07:22:36;8.15;;;3.47;;
39848;SDS011;25518;47.878;15.914;2022-08-19T07:25:03;8.27;;;3.50;;
39848;SDS011;25518;47.878;15.914;2022-08-19T07:27:30;7.78;;;3.38;;
39848;SDS011;25518;47.878;15.914;2022-08-19T07:29:56;8.57;;;3.70;;
39848;SDS011;25518;47.878;15.914;2022-08-19T07:32:23;6.05;;;2.88;;
39848;SDS011;25518;47.878;15.914;2022-08-19T07:34:53;10.20;;;3.22;;
39848;SDS011;25518;47.878;15.914;2022-08-19T07:37:19;7.97;;;3.60;;
39848;SDS011;25518;47.878;15.914;2022-08-19T07:39:45;9.52;;;4.03;;
39848;SDS011;25518;47.878;15.914;2022-08-19T07:42:11;7.67;;;3.40;;
39848;SDS011;25518;47.878;15.914;2022-08-19T07:44:39;9.67;;;3.57;;
39848;SDS011;25518;47.878;15.914;2022-08-19T07:47:05;9.50;;;3.27;;
39848;SDS011;25518;47.878;15.914;2022-08-19T07:49:32;8.73;;;3.30;;
39848;SDS011;25518;47.878;15.914;2022-08-19T07:52:00;11.43;;;3.72;;
39848;SDS011;25518;47.878;15.914;2022-08-19T07:54:28;8.57;;;3.35;;
39848;SDS011;25518;47.878;15.914;2022-08-19T07:56:55;9.75;;;3.67;;
39848;SDS011;25518;47.878;15.914;2022-08-19T07:59:22;6.65;;;2.80;;
39848;SDS011;25518;47.878;15.914;2022-08-19T08:01:49;7.57;;;3.23;;
39848;SDS011;25518;47.878;15.914;2022-08-19T08:04:16;8.77;;;3.22;;
39848;SDS011;25518;47.878;15.914;2022-08-19T08:07:03;7.07;;;3.03;;
39848;SDS011;25518;47.878;15.914;2022-08-19T08:09:49;9.38;;;3.42;;
39848;SDS011;25518;47.878;15.914;2022-08-19T08:12:21;7.50;;;2.97;;
39848;SDS011;25518;47.878;15.914;2022-08-19T08:14:51;10.50;;;3.20;;
39848;SDS011;25518;47.878;15.914;2022-08-19T08:17:19;7.50;;;3.90;;
39848;SDS011;25518;47.878;15.914;2022-08-19T08:19:46;7.65;;;3.20;;
39848;SDS011;25518;47.878;15.914;2022-08-19T08:22:14;7.95;;;3.08;;
39848;SDS011;25518;47.878;15.914;2022-08-19T08:25:03;7.43;;;2.73;;
39848;SDS011;25518;47.878;15.914;2022-08-19T08:27:30;7.38;;;3.05;;
39848;SDS011;25518;47.878;15.914;2022-08-19T08:29:57;10.77;;;3.33;;
39848;SDS011;25518;47.878;15.914;2022-08-19T08:32:23;9.57;;;3.30;;
39848;SDS011;25518;47.878;15.914;2022-08-19T08:34:49;8.80;;;3.47;;
39848;SDS011;25518;47.878;15.914;2022-08-19T08:37:15;7.68;;;2.60;;
39848;SDS011;25518;47.878;15.914;2022-08-19T08:39:42;10.70;;;3.33;;
39848;SDS011;25518;47.878;15.914;2022-08-19T08:42:26;5.95;;;2.88;;
39848;SDS011;25518;47.878;15.914;2022-08-19T08:47:22;8.32;;;3.83;;
39848;SDS011;25518;47.878;15.914;2022-08-19T08:49:53;8.90;;;3.90;;
39848;SDS011;25518;47.878;15.914;2022-08-19T08:52:25;10.48;;;3.50;;
39848;SDS011;25518;47.878;15.914;2022-08-19T08:54:54;9.55;;;3.80;;
39848;SDS011;25518;47.878;15.914;2022-08-19T08:59:48;9.23;;;3.25;;
39848;SDS011;25518;47.878;15.914;2022-08-19T09:02:17;11.38;;;3.22;;
39848;SDS011;25518;47.878;15.914;2022-08-19T09:04:44;7.03;;;2.90;;
39848;SDS011;25518;47.878;15.914;2022-08-19T09:07:45;8.75;;;2.80;;
39848;SDS011;25518;47.878;15.914;2022-08-19T09:10:02;8.75;;;2.83;;
39848;SDS011;25518;47.878;15.914;2022-08-19T09:12:37;7.85;;;2.83;;
39848;SDS011;25518;47.878;15.914;2022-08-19T09:15:08;8.32;;;2.92;;
39848;SDS011;25518;47.878;15.914;2022-08-19T09:17:35;7.03;;;2.95;;
39848;SDS011;25518;47.878;15.914;2022-08-19T09:22:35;11.32;;;3.70;;
39848;SDS011;25518;47.878;15.914;2022-08-19T09:25:02;13.20;;;3.50;;
39848;SDS011;25518;47.878;15.914;2022-08-19T09:27:30;10.25;;;3.03;;
39848;SDS011;25518;47.878;15.914;2022-08-19T09:29:57;8.07;;;3.00;;
39848;SDS011;25518;47.878;15.914;2022-08-19T09:32:24;11.70;;;3.28;;
39848;SDS011;25518;47.878;15.914;2022-08-19T09:34:51;9.13;;;3.28;;
39848;SDS011;25518;47.878;15.914;2022-08-19T09:37:20;10.65;;;3.47;;
39848;SDS011;25518;47.878;15.914;2022-08-19T09:39:47;10.85;;;3.63;;
39848;SDS011;25518;47.878;15.914;2022-08-19T09:42:13;9.05;;;3.55;;
39848;SDS011;25518;47.878;15.914;2022-08-19T09:44:40;8.57;;;2.83;;
39848;SDS011;25518;47.878;15.914;2022-08-19T09:47:06;6.17;;;2.27;;
39848;SDS011;25518;47.878;15.914;2022-08-19T09:49:33;7.40;;;2.00;;
39848;SDS011;25518;47.878;15.914;2022-08-19T09:51:59;7.45;;;2.75;;
39848;SDS011;25518;47.878;15.914;2022-08-19T09:54:26;8.93;;;2.70;;
39848;SDS011;25518;47.878;15.914;2022-08-19T09:56:53;6.90;;;2.67;;
39848;SDS011;25518;47.878;15.914;2022-08-19T09:59:20;9.85;;;2.80;;
39848;SDS011;25518;47.878;15.914;2022-08-19T10:01:47;6.50;;;2.67;;
39848;SDS011;25518;47.878;15.914;2022-08-19T10:04:13;11.05;;;2.83;;
39848;SDS011;25518;47.878;15.914;2022-08-19T10:06:39;7.68;;;2.67;;
39848;SDS011;25518;47.878;15.914;2022-08-19T10:09:07;5.97;;;2.35;;
39848;SDS011;25518;47.878;15.914;2022-08-19T10:11:34;11.60;;;3.08;;
39848;SDS011;25518;47.878;15.914;2022-08-19T10:14:02;7.20;;;2.78;;
39848;SDS011;25518;47.878;15.914;2022-08-19T10:16:30;9.48;;;2.50;;
39848;SDS011;25518;47.878;15.914;2022-08-19T10:18:57;8.70;;;2.30;;
39848;SDS011;25518;47.878;15.914;2022-08-19T10:21:25;9.15;;;3.58;;
39848;SDS011;25518;47.878;15.914;2022-08-19T10:23:53;10.07;;;3.30;;
39848;SDS011;25518;47.878;15.914;2022-08-19T10:26:23;5.90;;;2.28;;
39848;SDS011;25518;47.878;15.914;2022-08-19T10:28:49;9.98;;;2.47;;
39848;SDS011;25518;47.878;15.914;2022-08-19T10:31:18;6.75;;;2.17;;
39848;SDS011;25518;47.878;15.914;2022-08-19T10:33:45;7.72;;;2.22;;
39848;SDS011;25518;47.878;15.914;2022-08-19T10:36:14;10.57;;;2.17;;
39848;SDS011;25518;47.878;15.914;2022-08-19T10:38:42;5.10;;;1.80;;
39848;SDS011;25518;47.878;15.914;2022-08-19T10:41:12;8.45;;;2.50;;
39848;SDS011;25518;47.878;15.914;2022-08-19T10:43:39;8.65;;;2.35;;
39848;SDS011;25518;47.878;15.914;2022-08-19T10:46:07;7.13;;;2.53;;
39848;SDS011;25518;47.878;15.914;2022-08-19T10:48:34;8.98;;;2.60;;
39848;SDS011;25518;47.878;15.914;2022-08-19T10:51:01;7.10;;;2.13;;
39848;SDS011;25518;47.878;15.914;2022-08-19T10:53:47;7.80;;;2.13;;
39848;SDS011;25518;47.878;15.914;2022-08-19T10:56:14;6.03;;;2.20;;
39848;SDS011;25518;47.878;15.914;2022-08-19T10:59:00;9.07;;;2.25;;
39848;SDS011;25518;47.878;15.914;2022-08-19T11:01:28;11.43;;;2.47;;
39848;SDS011;25518;47.878;15.914;2022-08-19T11:03:56;8.40;;;2.28;;
39848;SDS011;25518;47.878;15.914;2022-08-19T11:06:23;8.00;;;2.63;;
39848;SDS011;25518;47.878;15.914;2022-08-19T11:08:51;8.68;;;2.20;;
39848;SDS011;25518;47.878;15.914;2022-08-19T11:11:18;5.70;;;1.90;;
39848;SDS011;25518;47.878;15.914;2022-08-19T11:13:44;10.50;;;2.55;;
39848;SDS011;25518;47.878;15.914;2022-08-19T11:16:13;8.73;;;2.30;;
39848;SDS011;25518;47.878;15.914;2022-08-19T11:18:41;9.63;;;2.38;;
39848;SDS011;25518;47.878;15.914;2022-08-19T11:21:12;6.78;;;2.40;;
39848;SDS011;25518;47.878;15.914;2022-08-19T11:23:38;12.05;;;2.60;;
39848;SDS011;25518;47.878;15.914;2022-08-19T11:26:05;10.53;;;2.20;;
39848;SDS011;25518;47.878;15.914;2022-08-19T11:28:31;8.88;;;2.92;;
39848;SDS011;25518;47.878;15.914;2022-08-19T11:30:58;6.85;;;2.28;;
39848;SDS011;25518;47.878;15.914;2022-08-19T11:33:24;9.25;;;2.80;;
39848;SDS011;25518;47.878;15.914;2022-08-19T11:35:51;7.20;;;2.27;;
39848;SDS011;25518;47.878;15.914;2022-08-19T11:38:19;8.30;;;2.22;;
39848;SDS011;25518;47.878;15.914;2022-08-19T11:40:45;7.47;;;2.20;;
39848;SDS011;25518;47.878;15.914;2022-08-19T11:43:19;8.07;;;2.50;;
39848;SDS011;25518;47.878;15.914;2022-08-19T11:45:45;10.13;;;2.17;;
39848;SDS011;25518;47.878;15.914;2022-08-19T11:48:13;8.93;;;2.40;;
39848;SDS011;25518;47.878;15.914;2022-08-19T11:50:39;7.07;;;1.92;;
39848;SDS011;25518;47.878;15.914;2022-08-19T11:53:07;10.68;;;2.33;;
39848;SDS011;25518;47.878;15.914;2022-08-19T11:55:38;7.67;;;2.10;;
39848;SDS011;25518;47.878;15.914;2022-08-19T11:58:05;8.20;;;2.35;;
39848;SDS011;25518;47.878;15.914;2022-08-19T12:00:33;9.48;;;2.85;;
39848;SDS011;25518;47.878;15.914;2022-08-19T12:03:00;7.28;;;2.92;;
39848;SDS011;25518;47.878;15.914;2022-08-19T12:05:27;12.02;;;2.53;;
39848;SDS011;25518;47.878;15.914;2022-08-19T12:07:53;8.50;;;2.22;;
39848;SDS011;25518;47.878;15.914;2022-08-19T12:10:19;8.65;;;2.60;;
39848;SDS011;25518;47.878;15.914;2022-08-19T12:12:46;5.77;;;2.50;;
39848;SDS011;25518;47.878;15.914;2022-08-19T12:15:12;9.77;;;2.58;;
39848;SDS011;25518;47.878;15.914;2022-08-19T12:17:40;10.73;;;2.40;;
39848;SDS011;25518;47.878;15.914;2022-08-19T12:20:08;10.43;;;3.15;;
39848;SDS011;25518;47.878;15.914;2022-08-19T12:22:36;7.90;;;2.38;;
39848;SDS011;25518;47.878;15.914;2022-08-19T12:25:03;8.63;;;3.03;;
39848;SDS011;25518;47.878;15.914;2022-08-19T12:27:30;7.07;;;2.75;;
39848;SDS011;25518;47.878;15.914;2022-08-19T12:29:56;10.05;;;2.90;;
39848;SDS011;25518;47.878;15.914;2022-08-19T12:32:25;18.60;;;2.80;;
39848;SDS011;25518;47.878;15.914;2022-08-19T12:34:52;7.25;;;2.63;;
39848;SDS011;25518;47.878;15.914;2022-08-19T12:37:18;7.97;;;2.45;;
39848;SDS011;25518;47.878;15.914;2022-08-19T12:39:44;9.80;;;2.50;;
39848;SDS011;25518;47.878;15.914;2022-08-19T12:42:11;10.40;;;2.50;;
39848;SDS011;25518;47.878;15.914;2022-08-19T12:44:38;7.80;;;2.63;;
39848;SDS011;25518;47.878;15.914;2022-08-19T12:47:05;8.43;;;2.40;;
39848;SDS011;25518;47.878;15.914;2022-08-19T12:49:32;7.85;;;2.88;;
39848;SDS011;25518;47.878;15.914;2022-08-19T12:52:00;8.23;;;2.53;;
39848;SDS011;25518;47.878;15.914;2022-08-19T12:54:27;6.88;;;2.53;;
39848;SDS011;25518;47.878;15.914;2022-08-19T12:56:53;8.48;;;2.45;;
39848;SDS011;25518;47.878;15.914;2022-08-19T12:59:19;9.50;;;2.30;;
39848;SDS011;25518;47.878;15.914;2022-08-19T13:01:46;9.35;;;2.45;;
39848;SDS011;25518;47.878;15.914;2022-08-19T13:04:12;9.35;;;2.15;;
39848;SDS011;25518;47.878;15.914;2022-08-19T13:06:38;5.25;;;2.08;;
39848;SDS011;25518;47.878;15.914;2022-08-19T13:09:04;7.32;;;2.22;;
39848;SDS011;25518;47.878;15.914;2022-08-19T13:11:31;10.38;;;2.10;;
39848;SDS011;25518;47.878;15.914;2022-08-19T13:13:57;8.63;;;1.88;;
39848;SDS011;25518;47.878;15.914;2022-08-19T13:16:24;9.02;;;1.77;;
39848;SDS011;25518;47.878;15.914;2022-08-19T13:18:53;10.27;;;2.58;;
39848;SDS011;25518;47.878;15.914;2022-08-19T13:21:20;7.70;;;2.10;;
39848;SDS011;25518;47.878;15.914;2022-08-19T13:23:48;5.82;;;2.10;;
39848;SDS011;25518;47.878;15.914;2022-08-19T13:26:14;5.18;;;2.40;;
39848;SDS011;25518;47.878;15.914;2022-08-19T13:28:41;5.68;;;1.98;;
39848;SDS011;25518;47.878;15.914;2022-08-19T13:31:28;8.10;;;1.90;;
39848;SDS011;25518;47.878;15.914;2022-08-19T13:34:15;7.25;;;2.28;;
39848;SDS011;25518;47.878;15.914;2022-08-19T13:36:42;6.20;;;1.40;;
39848;SDS011;25518;47.878;15.914;2022-08-19T13:39:09;6.18;;;1.98;;
39848;SDS011;25518;47.878;15.914;2022-08-19T13:41:36;8.82;;;1.92;;
39848;SDS011;25518;47.878;15.914;2022-08-19T13:44:03;6.13;;;1.67;;
39848;SDS011;25518;47.878;15.914;2022-08-19T13:46:31;5.80;;;1.52;;
39848;SDS011;25518;47.878;15.914;2022-08-19T13:48:57;7.97;;;1.73;;
39848;SDS011;25518;47.878;15.914;2022-08-19T13:51:23;4.15;;;1.40;;
39848;SDS011;25518;47.878;15.914;2022-08-19T13:53:50;6.38;;;1.77;;
39848;SDS011;25518;47.878;15.914;2022-08-19T13:56:17;5.07;;;1.52;;
39848;SDS011;25518;47.878;15.914;2022-08-19T13:58:44;8.37;;;1.70;;
39848;SDS011;25518;47.878;15.914;2022-08-19T14:01:11;6.40;;;1.30;;
39848;SDS011;25518;47.878;15.914;2022-08-19T14:03:38;4.18;;;1.20;;
39848;SDS011;25518;47.878;15.914;2022-08-19T14:06:04;6.03;;;1.35;;
39848;SDS011;25518;47.878;15.914;2022-08-19T14:08:30;6.43;;;1.63;;
39848;SDS011;25518;47.878;15.914;2022-08-19T14:10:57;3.80;;;1.60;;
39848;SDS011;25518;47.878;15.914;2022-08-19T14:13:24;5.35;;;1.90;;
39848;SDS011;25518;47.878;15.914;2022-08-19T14:15:51;5.60;;;1.52;;
39848;SDS011;25518;47.878;15.914;2022-08-19T14:18:18;5.30;;;1.33;;
39848;SDS011;25518;47.878;15.914;2022-08-19T14:20:44;7.25;;;1.50;;
39848;SDS011;25518;47.878;15.914;2022-08-19T14:23:10;3.90;;;1.45;;
39848;SDS011;25518;47.878;15.914;2022-08-19T14:25:38;5.88;;;1.50;;
39848;SDS011;25518;47.878;15.914;2022-08-19T14:28:04;6.63;;;1.37;;
39848;SDS011;25518;47.878;15.914;2022-08-19T14:30:32;8.43;;;1.67;;
39848;SDS011;25518;47.878;15.914;2022-08-19T14:33:00;6.70;;;1.90;;
39848;SDS011;25518;47.878;15.914;2022-08-19T14:35:27;6.80;;;1.77;;
39848;SDS011;25518;47.878;15.914;2022-08-19T14:37:54;4.93;;;1.60;;
39848;SDS011;25518;47.878;15.914;2022-08-19T14:40:22;5.75;;;2.30;;
39848;SDS011;25518;47.878;15.914;2022-08-19T14:42:51;6.25;;;1.50;;
39848;SDS011;25518;47.878;15.914;2022-08-19T14:45:20;8.00;;;1.73;;
39848;SDS011;25518;47.878;15.914;2022-08-19T14:47:47;5.93;;;1.40;;
39848;SDS011;25518;47.878;15.914;2022-08-19T14:50:14;6.13;;;2.45;;
39848;SDS011;25518;47.878;15.914;2022-08-19T14:52:40;6.33;;;1.67;;
39848;SDS011;25518;47.878;15.914;2022-08-19T14:55:08;5.20;;;1.50;;
39848;SDS011;25518;47.878;15.914;2022-08-19T14:57:34;6.35;;;1.95;;
39848;SDS011;25518;47.878;15.914;2022-08-19T15:00:00;6.38;;;1.77;;
39848;SDS011;25518;47.878;15.914;2022-08-19T15:02:27;8.50;;;1.98;;